首页
METAR-TAF:

METAR-TAF

机场 :

伦敦Biggin Hill, 英格兰

纬度: 51-19N, 经度: 000-02E, 海拔: 183米

当前天气观测

该预报发布于38分钟前的07:50 UTC
风速3节,风向多变
温度 6°C
湿度 93%
气压 1017 hPa
能见度10公里或以上
散云层高于4500英尺

METAR: EGKB 030750Z VRB03KT 9999 SCT045 06/05 Q1017

时间: 09:28 (08:28 UTC)

预报

该预报发布于2小时和34分钟前的05:54 UTC
预报有效从03日的 06点(UTC)到 03日的 15点(UTC)
风速6节,风向西
能见度10公里或以上
散云层高于3000英尺

TAF: EGKB 030554Z 0306/0315 28006KT 9999 SCT030

超过4000个机场的气象观测和天气预报(METAR&TAF报告)。

可查询的气象台以黄色和红色小点在地图上表示。

将鼠标移到小点上方,可查看气象台名称。

然后点击查看天气观测和预报。

如需切换地图:点击带黑十字的绿色按钮放大地图;点击带横线的绿色按钮缩小地图;或者点击绿色箭头查看邻近地区的地图。


METAR-TAF: